sensor_id;sensor_type;location;lat;lon;timestamp;P1;durP1;ratioP1;P2;durP2;ratioP2
57720;SDS011;43562;43.064;0.160;2023-03-01T00:02:25;12.60;;;8.30;;
57720;SDS011;43562;43.064;0.160;2023-03-01T00:04:51;11.13;;;7.10;;
57720;SDS011;43562;43.064;0.160;2023-03-01T00:07:17;11.70;;;7.57;;
57720;SDS011;43562;43.064;0.160;2023-03-01T00:09:43;8.65;;;7.13;;
57720;SDS011;43562;43.064;0.160;2023-03-01T00:12:10;8.98;;;7.13;;
57720;SDS011;43562;43.064;0.160;2023-03-01T00:14:37;11.73;;;7.30;;
57720;SDS011;43562;43.064;0.160;2023-03-01T00:17:03;12.82;;;7.63;;
57720;SDS011;43562;43.064;0.160;2023-03-01T00:19:29;8.63;;;6.03;;
57720;SDS011;43562;43.064;0.160;2023-03-01T00:21:55;10.43;;;6.53;;
57720;SDS011;43562;43.064;0.160;2023-03-01T00:24:21;12.20;;;7.15;;
57720;SDS011;43562;43.064;0.160;2023-03-01T00:26:47;9.80;;;6.38;;
57720;SDS011;43562;43.064;0.160;2023-03-01T00:29:13;10.52;;;5.93;;
57720;SDS011;43562;43.064;0.160;2023-03-01T00:31:39;10.13;;;6.80;;
57720;SDS011;43562;43.064;0.160;2023-03-01T00:34:05;11.65;;;7.40;;
57720;SDS011;43562;43.064;0.160;2023-03-01T00:36:32;10.75;;;6.60;;
57720;SDS011;43562;43.064;0.160;2023-03-01T00:38:59;10.38;;;6.93;;
57720;SDS011;43562;43.064;0.160;2023-03-01T00:41:26;8.68;;;6.38;;
57720;SDS011;43562;43.064;0.160;2023-03-01T00:43:52;10.27;;;6.53;;
57720;SDS011;43562;43.064;0.160;2023-03-01T00:46:20;9.95;;;5.97;;
57720;SDS011;43562;43.064;0.160;2023-03-01T00:48:46;8.93;;;5.78;;
57720;SDS011;43562;43.064;0.160;2023-03-01T00:51:18;8.10;;;5.88;;
57720;SDS011;43562;43.064;0.160;2023-03-01T00:53:44;7.85;;;6.00;;
57720;SDS011;43562;43.064;0.160;2023-03-01T00:56:11;9.90;;;6.80;;
57720;SDS011;43562;43.064;0.160;2023-03-01T00:58:38;8.63;;;6.63;;
57720;SDS011;43562;43.064;0.160;2023-03-01T01:01:11;7.47;;;6.45;;
57720;SDS011;43562;43.064;0.160;2023-03-01T01:03:45;10.52;;;7.43;;
57720;SDS011;43562;43.064;0.160;2023-03-01T01:06:18;11.57;;;6.20;;
57720;SDS011;43562;43.064;0.160;2023-03-01T01:08:44;8.07;;;5.97;;
57720;SDS011;43562;43.064;0.160;2023-03-01T01:11:11;10.93;;;6.80;;
57720;SDS011;43562;43.064;0.160;2023-03-01T01:13:37;7.88;;;5.80;;
57720;SDS011;43562;43.064;0.160;2023-03-01T01:16:04;10.95;;;6.45;;
57720;SDS011;43562;43.064;0.160;2023-03-01T01:18:30;9.05;;;6.20;;
57720;SDS011;43562;43.064;0.160;2023-03-01T01:20:56;10.18;;;7.00;;
57720;SDS011;43562;43.064;0.160;2023-03-01T01:23:22;9.55;;;6.70;;
57720;SDS011;43562;43.064;0.160;2023-03-01T01:25:48;11.38;;;6.57;;
57720;SDS011;43562;43.064;0.160;2023-03-01T01:28:14;9.60;;;6.60;;
57720;SDS011;43562;43.064;0.160;2023-03-01T01:30:40;11.65;;;7.13;;
57720;SDS011;43562;43.064;0.160;2023-03-01T01:33:08;11.82;;;7.45;;
57720;SDS011;43562;43.064;0.160;2023-03-01T01:35:34;11.20;;;6.95;;
57720;SDS011;43562;43.064;0.160;2023-03-01T01:38:00;8.50;;;6.45;;
57720;SDS011;43562;43.064;0.160;2023-03-01T01:40:26;10.02;;;6.35;;
57720;SDS011;43562;43.064;0.160;2023-03-01T01:42:52;9.07;;;6.32;;
57720;SDS011;43562;43.064;0.160;2023-03-01T01:47:50;10.10;;;7.30;;
57720;SDS011;43562;43.064;0.160;2023-03-01T01:50:17;8.55;;;6.93;;
57720;SDS011;43562;43.064;0.160;2023-03-01T01:52:44;8.85;;;7.05;;
57720;SDS011;43562;43.064;0.160;2023-03-01T01:55:12;8.77;;;6.63;;
57720;SDS011;43562;43.064;0.160;2023-03-01T01:57:41;11.32;;;6.53;;
57720;SDS011;43562;43.064;0.160;2023-03-01T02:00:11;8.73;;;6.55;;
57720;SDS011;43562;43.064;0.160;2023-03-01T02:02:38;10.73;;;7.13;;
57720;SDS011;43562;43.064;0.160;2023-03-01T02:05:08;10.15;;;7.05;;
57720;SDS011;43562;43.064;0.160;2023-03-01T02:07:35;10.88;;;8.18;;
57720;SDS011;43562;43.064;0.160;2023-03-01T02:10:03;9.55;;;6.93;;
57720;SDS011;43562;43.064;0.160;2023-03-01T02:12:29;10.63;;;7.43;;
57720;SDS011;43562;43.064;0.160;2023-03-01T02:14:56;11.07;;;7.32;;
57720;SDS011;43562;43.064;0.160;2023-03-01T02:17:22;11.25;;;7.32;;
57720;SDS011;43562;43.064;0.160;2023-03-01T02:22:32;9.05;;;6.15;;
57720;SDS011;43562;43.064;0.160;2023-03-01T02:27:26;8.40;;;6.47;;
57720;SDS011;43562;43.064;0.160;2023-03-01T02:29:54;14.13;;;8.02;;
57720;SDS011;43562;43.064;0.160;2023-03-01T02:32:20;16.67;;;9.20;;
57720;SDS011;43562;43.064;0.160;2023-03-01T02:34:51;9.45;;;7.50;;
57720;SDS011;43562;43.064;0.160;2023-03-01T02:37:17;13.80;;;7.75;;
57720;SDS011;43562;43.064;0.160;2023-03-01T02:39:51;9.82;;;6.72;;
57720;SDS011;43562;43.064;0.160;2023-03-01T02:42:22;14.57;;;7.90;;
57720;SDS011;43562;43.064;0.160;2023-03-01T02:44:49;12.18;;;7.35;;
57720;SDS011;43562;43.064;0.160;2023-03-01T02:47:15;16.10;;;7.63;;
57720;SDS011;43562;43.064;0.160;2023-03-01T02:49:41;12.07;;;7.22;;
57720;SDS011;43562;43.064;0.160;2023-03-01T02:54:44;12.18;;;7.05;;
57720;SDS011;43562;43.064;0.160;2023-03-01T02:57:12;13.73;;;6.57;;
57720;SDS011;43562;43.064;0.160;2023-03-01T02:59:39;17.73;;;8.20;;
57720;SDS011;43562;43.064;0.160;2023-03-01T03:02:06;12.52;;;7.75;;
57720;SDS011;43562;43.064;0.160;2023-03-01T03:04:32;8.85;;;7.40;;
57720;SDS011;43562;43.064;0.160;2023-03-01T03:06:58;9.07;;;7.22;;
57720;SDS011;43562;43.064;0.160;2023-03-01T03:09:24;11.23;;;7.63;;
57720;SDS011;43562;43.064;0.160;2023-03-01T03:11:50;12.38;;;7.07;;
57720;SDS011;43562;43.064;0.160;2023-03-01T03:14:17;15.07;;;8.02;;
57720;SDS011;43562;43.064;0.160;2023-03-01T03:16:47;16.92;;;9.10;;
57720;SDS011;43562;43.064;0.160;2023-03-01T03:19:13;12.88;;;8.07;;
57720;SDS011;43562;43.064;0.160;2023-03-01T03:21:39;12.10;;;7.30;;
57720;SDS011;43562;43.064;0.160;2023-03-01T03:24:06;15.40;;;8.38;;
57720;SDS011;43562;43.064;0.160;2023-03-01T03:26:32;11.35;;;7.18;;
57720;SDS011;43562;43.064;0.160;2023-03-01T03:28:58;12.70;;;7.90;;
57720;SDS011;43562;43.064;0.160;2023-03-01T03:31:24;10.52;;;7.40;;
57720;SDS011;43562;43.064;0.160;2023-03-01T03:33:50;11.32;;;8.25;;
57720;SDS011;43562;43.064;0.160;2023-03-01T03:36:17;10.20;;;7.28;;
57720;SDS011;43562;43.064;0.160;2023-03-01T03:38:44;11.10;;;6.38;;
57720;SDS011;43562;43.064;0.160;2023-03-01T03:41:10;9.52;;;6.43;;
57720;SDS011;43562;43.064;0.160;2023-03-01T03:43:38;9.57;;;7.10;;
57720;SDS011;43562;43.064;0.160;2023-03-01T03:46:04;12.10;;;7.38;;
57720;SDS011;43562;43.064;0.160;2023-03-01T03:48:34;10.15;;;7.57;;
57720;SDS011;43562;43.064;0.160;2023-03-01T03:51:00;9.65;;;6.93;;
57720;SDS011;43562;43.064;0.160;2023-03-01T03:53:27;9.07;;;6.40;;
57720;SDS011;43562;43.064;0.160;2023-03-01T03:55:53;12.07;;;8.00;;
57720;SDS011;43562;43.064;0.160;2023-03-01T03:58:20;9.15;;;6.70;;
57720;SDS011;43562;43.064;0.160;2023-03-01T04:00:48;10.10;;;7.72;;
57720;SDS011;43562;43.064;0.160;2023-03-01T04:03:15;11.00;;;7.43;;
57720;SDS011;43562;43.064;0.160;2023-03-01T04:05:41;12.65;;;8.65;;
57720;SDS011;43562;43.064;0.160;2023-03-01T04:08:08;11.40;;;7.38;;
57720;SDS011;43562;43.064;0.160;2023-03-01T04:10:38;10.85;;;6.38;;
57720;SDS011;43562;43.064;0.160;2023-03-01T04:13:05;8.95;;;6.80;;
57720;SDS011;43562;43.064;0.160;2023-03-01T04:15:32;10.07;;;7.68;;
57720;SDS011;43562;43.064;0.160;2023-03-01T04:17:58;9.55;;;6.90;;
57720;SDS011;43562;43.064;0.160;2023-03-01T04:20:25;13.30;;;7.15;;
57720;SDS011;43562;43.064;0.160;2023-03-01T04:23:00;12.82;;;7.88;;
57720;SDS011;43562;43.064;0.160;2023-03-01T04:25:49;12.30;;;7.47;;
57720;SDS011;43562;43.064;0.160;2023-03-01T04:28:19;10.75;;;7.22;;
57720;SDS011;43562;43.064;0.160;2023-03-01T04:30:46;9.65;;;7.18;;
57720;SDS011;43562;43.064;0.160;2023-03-01T04:33:12;8.68;;;5.88;;
57720;SDS011;43562;43.064;0.160;2023-03-01T04:35:38;12.00;;;7.32;;
57720;SDS011;43562;43.064;0.160;2023-03-01T04:38:05;8.45;;;6.28;;
57720;SDS011;43562;43.064;0.160;2023-03-01T04:40:32;9.07;;;7.30;;
57720;SDS011;43562;43.064;0.160;2023-03-01T04:42:58;8.55;;;6.70;;
57720;SDS011;43562;43.064;0.160;2023-03-01T04:45:24;9.82;;;6.57;;
57720;SDS011;43562;43.064;0.160;2023-03-01T04:47:50;9.35;;;7.18;;
57720;SDS011;43562;43.064;0.160;2023-03-01T04:50:17;10.93;;;7.20;;
57720;SDS011;43562;43.064;0.160;2023-03-01T04:52:45;10.85;;;7.00;;
57720;SDS011;43562;43.064;0.160;2023-03-01T04:55:11;8.55;;;6.40;;
57720;SDS011;43562;43.064;0.160;2023-03-01T04:57:38;10.43;;;6.65;;
57720;SDS011;43562;43.064;0.160;2023-03-01T05:00:05;10.50;;;7.00;;
57720;SDS011;43562;43.064;0.160;2023-03-01T05:02:48;10.60;;;6.57;;
57720;SDS011;43562;43.064;0.160;2023-03-01T05:05:18;12.00;;;6.95;;
57720;SDS011;43562;43.064;0.160;2023-03-01T05:07:44;9.18;;;6.68;;
57720;SDS011;43562;43.064;0.160;2023-03-01T05:10:10;12.02;;;7.05;;
57720;SDS011;43562;43.064;0.160;2023-03-01T05:12:36;11.07;;;6.43;;
57720;SDS011;43562;43.064;0.160;2023-03-01T05:15:03;8.35;;;6.72;;
57720;SDS011;43562;43.064;0.160;2023-03-01T05:17:32;9.60;;;8.40;;
57720;SDS011;43562;43.064;0.160;2023-03-01T05:19:59;10.02;;;6.85;;
57720;SDS011;43562;43.064;0.160;2023-03-01T05:22:25;8.60;;;7.03;;
57720;SDS011;43562;43.064;0.160;2023-03-01T05:24:52;7.53;;;6.35;;
57720;SDS011;43562;43.064;0.160;2023-03-01T05:27:19;8.27;;;5.82;;
57720;SDS011;43562;43.064;0.160;2023-03-01T05:29:47;9.18;;;7.05;;
57720;SDS011;43562;43.064;0.160;2023-03-01T05:32:13;7.88;;;6.45;;
57720;SDS011;43562;43.064;0.160;2023-03-01T05:34:40;8.05;;;6.53;;
57720;SDS011;43562;43.064;0.160;2023-03-01T05:37:07;8.55;;;6.43;;
57720;SDS011;43562;43.064;0.160;2023-03-01T05:39:34;6.88;;;6.25;;
57720;SDS011;43562;43.064;0.160;2023-03-01T05:42:01;8.55;;;6.10;;
57720;SDS011;43562;43.064;0.160;2023-03-01T05:44:27;9.38;;;6.35;;
57720;SDS011;43562;43.064;0.160;2023-03-01T05:46:54;7.43;;;6.25;;
57720;SDS011;43562;43.064;0.160;2023-03-01T05:49:21;9.85;;;6.20;;
57720;SDS011;43562;43.064;0.160;2023-03-01T05:51:49;8.52;;;6.72;;
57720;SDS011;43562;43.064;0.160;2023-03-01T05:54:16;9.82;;;6.05;;
57720;SDS011;43562;43.064;0.160;2023-03-01T05:56:42;8.23;;;6.68;;
57720;SDS011;43562;43.064;0.160;2023-03-01T05:59:09;10.68;;;6.63;;
57720;SDS011;43562;43.064;0.160;2023-03-01T06:01:35;12.32;;;7.43;;
57720;SDS011;43562;43.064;0.160;2023-03-01T06:04:02;10.10;;;7.45;;
57720;SDS011;43562;43.064;0.160;2023-03-01T06:06:28;7.55;;;6.20;;
57720;SDS011;43562;43.064;0.160;2023-03-01T06:08:55;9.48;;;7.10;;
57720;SDS011;43562;43.064;0.160;2023-03-01T06:11:21;9.45;;;6.78;;
57720;SDS011;43562;43.064;0.160;2023-03-01T06:13:47;11.80;;;6.57;;
57720;SDS011;43562;43.064;0.160;2023-03-01T06:16:14;8.27;;;5.88;;
57720;SDS011;43562;43.064;0.160;2023-03-01T06:18:40;8.25;;;5.97;;
57720;SDS011;43562;43.064;0.160;2023-03-01T06:21:06;8.00;;;6.07;;
57720;SDS011;43562;43.064;0.160;2023-03-01T06:23:33;8.57;;;5.53;;
57720;SDS011;43562;43.064;0.160;2023-03-01T06:25:59;7.93;;;6.18;;
57720;SDS011;43562;43.064;0.160;2023-03-01T06:28:26;9.95;;;7.78;;
57720;SDS011;43562;43.064;0.160;2023-03-01T06:30:52;7.78;;;6.35;;
57720;SDS011;43562;43.064;0.160;2023-03-01T06:33:18;11.55;;;6.80;;
57720;SDS011;43562;43.064;0.160;2023-03-01T06:35:49;8.15;;;6.00;;
57720;SDS011;43562;43.064;0.160;2023-03-01T06:38:15;7.60;;;6.40;;
57720;SDS011;43562;43.064;0.160;2023-03-01T06:40:44;7.28;;;6.20;;
57720;SDS011;43562;43.064;0.160;2023-03-01T06:43:10;9.05;;;6.60;;
57720;SDS011;43562;43.064;0.160;2023-03-01T06:45:36;13.13;;;6.90;;
57720;SDS011;43562;43.064;0.160;2023-03-01T06:48:06;11.30;;;6.60;;
57720;SDS011;43562;43.064;0.160;2023-03-01T06:50:33;8.52;;;6.45;;
57720;SDS011;43562;43.064;0.160;2023-03-01T06:52:59;10.77;;;7.68;;
57720;SDS011;43562;43.064;0.160;2023-03-01T06:55:26;9.15;;;6.70;;
57720;SDS011;43562;43.064;0.160;2023-03-01T06:57:55;8.57;;;6.90;;
57720;SDS011;43562;43.064;0.160;2023-03-01T07:00:21;8.02;;;6.00;;
57720;SDS011;43562;43.064;0.160;2023-03-01T07:02:47;9.05;;;6.50;;
57720;SDS011;43562;43.064;0.160;2023-03-01T07:05:13;9.18;;;7.03;;
57720;SDS011;43562;43.064;0.160;2023-03-01T07:07:39;13.77;;;7.82;;
57720;SDS011;43562;43.064;0.160;2023-03-01T07:10:06;9.27;;;6.60;;
57720;SDS011;43562;43.064;0.160;2023-03-01T07:12:32;9.68;;;7.10;;
57720;SDS011;43562;43.064;0.160;2023-03-01T07:14:58;12.27;;;7.82;;
57720;SDS011;43562;43.064;0.160;2023-03-01T07:17:24;11.07;;;7.13;;
57720;SDS011;43562;43.064;0.160;2023-03-01T07:19:50;10.18;;;7.50;;
57720;SDS011;43562;43.064;0.160;2023-03-01T07:22:16;10.23;;;7.57;;
57720;SDS011;43562;43.064;0.160;2023-03-01T07:24:43;10.93;;;7.38;;
57720;SDS011;43562;43.064;0.160;2023-03-01T07:27:09;14.00;;;7.60;;
57720;SDS011;43562;43.064;0.160;2023-03-01T07:29:35;8.70;;;7.20;;
57720;SDS011;43562;43.064;0.160;2023-03-01T07:32:02;10.80;;;7.85;;
57720;SDS011;43562;43.064;0.160;2023-03-01T07:34:28;8.98;;;7.65;;
57720;SDS011;43562;43.064;0.160;2023-03-01T07:36:54;12.57;;;7.80;;
57720;SDS011;43562;43.064;0.160;2023-03-01T07:39:20;8.55;;;7.00;;
57720;SDS011;43562;43.064;0.160;2023-03-01T07:41:48;10.18;;;7.30;;
57720;SDS011;43562;43.064;0.160;2023-03-01T07:44:14;11.95;;;7.95;;
57720;SDS011;43562;43.064;0.160;2023-03-01T07:46:41;10.80;;;7.60;;
57720;SDS011;43562;43.064;0.160;2023-03-01T07:49:07;11.07;;;7.40;;
57720;SDS011;43562;43.064;0.160;2023-03-01T07:51:33;9.75;;;8.05;;
57720;SDS011;43562;43.064;0.160;2023-03-01T07:53:59;10.95;;;8.48;;
57720;SDS011;43562;43.064;0.160;2023-03-01T07:56:25;10.18;;;8.90;;
57720;SDS011;43562;43.064;0.160;2023-03-01T07:58:52;11.52;;;8.02;;
57720;SDS011;43562;43.064;0.160;2023-03-01T08:01:20;11.52;;;8.32;;
57720;SDS011;43562;43.064;0.160;2023-03-01T08:03:46;10.63;;;7.72;;
57720;SDS011;43562;43.064;0.160;2023-03-01T08:06:13;11.68;;;7.93;;
57720;SDS011;43562;43.064;0.160;2023-03-01T08:08:39;10.60;;;8.43;;
57720;SDS011;43562;43.064;0.160;2023-03-01T08:11:07;10.13;;;7.28;;
57720;SDS011;43562;43.064;0.160;2023-03-01T08:13:33;12.75;;;6.85;;
57720;SDS011;43562;43.064;0.160;2023-03-01T08:16:03;9.43;;;6.78;;
57720;SDS011;43562;43.064;0.160;2023-03-01T08:18:30;10.30;;;7.03;;
57720;SDS011;43562;43.064;0.160;2023-03-01T08:21:00;7.90;;;6.57;;
57720;SDS011;43562;43.064;0.160;2023-03-01T08:23:26;9.00;;;7.28;;
57720;SDS011;43562;43.064;0.160;2023-03-01T08:25:52;11.18;;;6.85;;
57720;SDS011;43562;43.064;0.160;2023-03-01T08:28:18;7.07;;;6.38;;
57720;SDS011;43562;43.064;0.160;2023-03-01T08:30:44;10.95;;;7.22;;
57720;SDS011;43562;43.064;0.160;2023-03-01T08:33:10;14.55;;;8.25;;
57720;SDS011;43562;43.064;0.160;2023-03-01T08:35:36;7.15;;;6.00;;
57720;SDS011;43562;43.064;0.160;2023-03-01T08:38:03;11.88;;;7.68;;
57720;SDS011;43562;43.064;0.160;2023-03-01T08:40:29;9.88;;;7.35;;
57720;SDS011;43562;43.064;0.160;2023-03-01T08:42:55;13.70;;;7.70;;
57720;SDS011;43562;43.064;0.160;2023-03-01T08:45:21;8.45;;;6.47;;
57720;SDS011;43562;43.064;0.160;2023-03-01T08:47:47;9.30;;;7.00;;
57720;SDS011;43562;43.064;0.160;2023-03-01T08:50:13;9.55;;;6.78;;
57720;SDS011;43562;43.064;0.160;2023-03-01T08:52:39;9.43;;;7.35;;
57720;SDS011;43562;43.064;0.160;2023-03-01T08:55:06;10.10;;;6.65;;
57720;SDS011;43562;43.064;0.160;2023-03-01T08:57:32;9.48;;;6.50;;
57720;SDS011;43562;43.064;0.160;2023-03-01T08:59:58;7.88;;;5.80;;
57720;SDS011;43562;43.064;0.160;2023-03-01T09:02:24;8.55;;;6.53;;
57720;SDS011;43562;43.064;0.160;2023-03-01T09:04:50;10.05;;;6.80;;
57720;SDS011;43562;43.064;0.160;2023-03-01T09:07:16;9.52;;;5.47;;
57720;SDS011;43562;43.064;0.160;2023-03-01T09:09:42;9.48;;;6.55;;
57720;SDS011;43562;43.064;0.160;2023-03-01T09:12:08;8.45;;;6.22;;
57720;SDS011;43562;43.064;0.160;2023-03-01T09:14:34;8.70;;;6.43;;
57720;SDS011;43562;43.064;0.160;2023-03-01T09:17:03;8.73;;;6.18;;
57720;SDS011;43562;43.064;0.160;2023-03-01T09:19:29;11.30;;;7.20;;
57720;SDS011;43562;43.064;0.160;2023-03-01T09:21:55;7.57;;;6.78;;
57720;SDS011;43562;43.064;0.160;2023-03-01T09:24:23;10.63;;;7.40;;
57720;SDS011;43562;43.064;0.160;2023-03-01T09:26:50;9.88;;;7.15;;
57720;SDS011;43562;43.064;0.160;2023-03-01T09:29:18;8.05;;;6.30;;
57720;SDS011;43562;43.064;0.160;2023-03-01T09:31:44;6.47;;;5.65;;
57720;SDS011;43562;43.064;0.160;2023-03-01T09:34:10;9.40;;;6.57;;
57720;SDS011;43562;43.064;0.160;2023-03-01T09:36:37;9.60;;;6.93;;
57720;SDS011;43562;43.064;0.160;2023-03-01T09:39:03;8.10;;;6.68;;
57720;SDS011;43562;43.064;0.160;2023-03-01T09:44:01;8.85;;;7.47;;
57720;SDS011;43562;43.064;0.160;2023-03-01T09:46:29;11.75;;;7.63;;
57720;SDS011;43562;43.064;0.160;2023-03-01T09:48:59;10.52;;;7.75;;
57720;SDS011;43562;43.064;0.160;2023-03-01T09:51:34;11.65;;;6.88;;
57720;SDS011;43562;43.064;0.160;2023-03-01T09:54:02;7.85;;;6.03;;
57720;SDS011;43562;43.064;0.160;2023-03-01T09:56:39;8.18;;;5.90;;
57720;SDS011;43562;43.064;0.160;2023-03-01T10:01:58;9.23;;;5.57;;
57720;SDS011;43562;43.064;0.160;2023-03-01T10:04:45;7.00;;;5.75;;
57720;SDS011;43562;43.064;0.160;2023-03-01T10:09:47;9.82;;;5.95;;
57720;SDS011;43562;43.064;0.160;2023-03-01T10:12:20;6.68;;;5.03;;
57720;SDS011;43562;43.064;0.160;2023-03-01T10:15:00;7.95;;;5.57;;
57720;SDS011;43562;43.064;0.160;2023-03-01T10:19:58;7.13;;;5.32;;
57720;SDS011;43562;43.064;0.160;2023-03-01T10:22:34;6.28;;;4.88;;
57720;SDS011;43562;43.064;0.160;2023-03-01T10:25:02;6.68;;;5.38;;
57720;SDS011;43562;43.064;0.160;2023-03-01T10:30:18;8.55;;;6.28;;
57720;SDS011;43562;43.064;0.160;2023-03-01T10:32:45;7.03;;;5.70;;
57720;SDS011;43562;43.064;0.160;2023-03-01T10:35:27;6.22;;;5.18;;
57720;SDS011;43562;43.064;0.160;2023-03-01T10:37:57;6.55;;;5.00;;
57720;SDS011;43562;43.064;0.160;2023-03-01T10:40:23;6.20;;;5.32;;
57720;SDS011;43562;43.064;0.160;2023-03-01T10:42:50;5.82;;;5.20;;
57720;SDS011;43562;43.064;0.160;2023-03-01T10:45:31;5.75;;;5.10;;
57720;SDS011;43562;43.064;0.160;2023-03-01T10:50:29;7.57;;;5.22;;
57720;SDS011;43562;43.064;0.160;2023-03-01T10:52:58;6.40;;;5.30;;
57720;SDS011;43562;43.064;0.160;2023-03-01T10:55:40;5.85;;;5.10;;
57720;SDS011;43562;43.064;0.160;2023-03-01T10:58:20;6.18;;;5.25;;
57720;SDS011;43562;43.064;0.160;2023-03-01T11:00:52;6.70;;;5.60;;
57720;SDS011;43562;43.064;0.160;2023-03-01T11:05:58;9.57;;;5.57;;
57720;SDS011;43562;43.064;0.160;2023-03-01T11:11:25;6.20;;;5.47;;
57720;SDS011;43562;43.064;0.160;2023-03-01T11:19:04;6.13;;;5.53;;
57720;SDS011;43562;43.064;0.160;2023-03-01T11:24:06;6.63;;;5.70;;
57720;SDS011;43562;43.064;0.160;2023-03-01T11:26:34;6.35;;;5.63;;
57720;SDS011;43562;43.064;0.160;2023-03-01T11:29:04;9.35;;;5.38;;
57720;SDS011;43562;43.064;0.160;2023-03-01T11:31:30;5.15;;;4.63;;
57720;SDS011;43562;43.064;0.160;2023-03-01T11:34:06;6.18;;;5.03;;
57720;SDS011;43562;43.064;0.160;2023-03-01T11:39:47;8.38;;;5.60;;
57720;SDS011;43562;43.064;0.160;2023-03-01T11:45:02;7.93;;;5.55;;
57720;SDS011;43562;43.064;0.160;2023-03-01T11:47:40;7.38;;;5.53;;
57720;SDS011;43562;43.064;0.160;2023-03-01T11:50:19;6.63;;;5.07;;
57720;SDS011;43562;43.064;0.160;2023-03-01T11:53:34;8.15;;;7.30;;
57720;SDS011;43562;43.064;0.160;2023-03-01T12:08:34;10.13;;;6.13;;
57720;SDS011;43562;43.064;0.160;2023-03-01T12:11:11;6.68;;;5.18;;
57720;SDS011;43562;43.064;0.160;2023-03-01T12:24:20;5.97;;;5.05;;
57720;SDS011;43562;43.064;0.160;2023-03-01T12:40:31;8.50;;;6.25;;
57720;SDS011;43562;43.064;0.160;2023-03-01T12:43:06;9.82;;;6.43;;
57720;SDS011;43562;43.064;0.160;2023-03-01T12:50:28;8.90;;;6.05;;
57720;SDS011;43562;43.064;0.160;2023-03-01T12:52:57;10.23;;;7.03;;
57720;SDS011;43562;43.064;0.160;2023-03-01T12:58:36;9.32;;;6.90;;
57720;SDS011;43562;43.064;0.160;2023-03-01T13:00:47;11.88;;;7.45;;
57720;SDS011;43562;43.064;0.160;2023-03-01T13:11:16;9.35;;;6.88;;
57720;SDS011;43562;43.064;0.160;2023-03-01T13:13:43;9.80;;;6.50;;
57720;SDS011;43562;43.064;0.160;2023-03-01T13:21:40;9.68;;;6.68;;
57720;SDS011;43562;43.064;0.160;2023-03-01T13:24:24;11.52;;;6.80;;
57720;SDS011;43562;43.064;0.160;2023-03-01T13:34:58;9.23;;;6.95;;
57720;SDS011;43562;43.064;0.160;2023-03-01T13:37:26;9.23;;;6.28;;
57720;SDS011;43562;43.064;0.160;2023-03-01T13:39:54;8.45;;;6.68;;
57720;SDS011;43562;43.064;0.160;2023-03-01T13:42:39;11.32;;;6.72;;
57720;SDS011;43562;43.064;0.160;2023-03-01T13:45:14;9.40;;;6.47;;
57720;SDS011;43562;43.064;0.160;2023-03-01T13:47:41;8.18;;;5.85;;
57720;SDS011;43562;43.064;0.160;2023-03-01T13:50:15;8.43;;;6.78;;
57720;SDS011;43562;43.064;0.160;2023-03-01T13:52:42;10.57;;;6.15;;
57720;SDS011;43562;43.064;0.160;2023-03-01T14:03:16;7.35;;;5.93;;
57720;SDS011;43562;43.064;0.160;2023-03-01T14:08:28;9.00;;;6.63;;
57720;SDS011;43562;43.064;0.160;2023-03-01T14:15:53;9.30;;;6.65;;
57720;SDS011;43562;43.064;0.160;2023-03-01T14:18:30;9.52;;;6.05;;
57720;SDS011;43562;43.064;0.160;2023-03-01T14:21:06;12.00;;;6.55;;
57720;SDS011;43562;43.064;0.160;2023-03-01T14:23:32;11.93;;;6.25;;
57720;SDS011;43562;43.064;0.160;2023-03-01T14:26:00;8.07;;;6.10;;
57720;SDS011;43562;43.064;0.160;2023-03-01T14:28:27;7.68;;;6.45;;
57720;SDS011;43562;43.064;0.160;2023-03-01T14:30:55;7.32;;;6.50;;
57720;SDS011;43562;43.064;0.160;2023-03-01T14:33:31;7.25;;;5.93;;
57720;SDS011;43562;43.064;0.160;2023-03-01T14:36:02;8.50;;;5.90;;
57720;SDS011;43562;43.064;0.160;2023-03-01T14:38:30;11.38;;;6.32;;
57720;SDS011;43562;43.064;0.160;2023-03-01T14:40:58;8.90;;;6.70;;
57720;SDS011;43562;43.064;0.160;2023-03-01T14:43:25;8.15;;;6.45;;
57720;SDS011;43562;43.064;0.160;2023-03-01T14:45:51;6.60;;;5.65;;
57720;SDS011;43562;43.064;0.160;2023-03-01T14:48:18;9.82;;;7.15;;
57720;SDS011;43562;43.064;0.160;2023-03-01T14:50:44;8.38;;;5.32;;
57720;SDS011;43562;43.064;0.160;2023-03-01T14:53:21;12.05;;;6.57;;
57720;SDS011;43562;43.064;0.160;2023-03-01T14:55:50;7.53;;;5.97;;
57720;SDS011;43562;43.064;0.160;2023-03-01T14:58:19;8.13;;;6.18;;
57720;SDS011;43562;43.064;0.160;2023-03-01T15:00:51;8.75;;;6.15;;
57720;SDS011;43562;43.064;0.160;2023-03-01T15:03:20;13.45;;;8.10;;
57720;SDS011;43562;43.064;0.160;2023-03-01T15:05:49;9.52;;;6.47;;
57720;SDS011;43562;43.064;0.160;2023-03-01T15:08:20;8.77;;;6.63;;
57720;SDS011;43562;43.064;0.160;2023-03-01T15:13:32;9.73;;;6.63;;
57720;SDS011;43562;43.064;0.160;2023-03-01T15:16:05;8.63;;;6.90;;
57720;SDS011;43562;43.064;0.160;2023-03-01T15:18:32;8.88;;;7.40;;
57720;SDS011;43562;43.064;0.160;2023-03-01T15:21:09;9.48;;;5.85;;
57720;SDS011;43562;43.064;0.160;2023-03-01T15:23:35;11.27;;;7.25;;
57720;SDS011;43562;43.064;0.160;2023-03-01T15:26:02;10.35;;;7.05;;
57720;SDS011;43562;43.064;0.160;2023-03-01T15:28:35;9.07;;;6.38;;
57720;SDS011;43562;43.064;0.160;2023-03-01T15:33:30;8.75;;;6.70;;
57720;SDS011;43562;43.064;0.160;2023-03-01T15:36:04;11.27;;;7.28;;
57720;SDS011;43562;43.064;0.160;2023-03-01T15:38:52;8.25;;;6.20;;
57720;SDS011;43562;43.064;0.160;2023-03-01T15:41:45;10.32;;;6.50;;
57720;SDS011;43562;43.064;0.160;2023-03-01T15:44:24;9.57;;;7.30;;
57720;SDS011;43562;43.064;0.160;2023-03-01T15:46:51;7.88;;;6.57;;
57720;SDS011;43562;43.064;0.160;2023-03-01T15:51:46;11.98;;;7.60;;
57720;SDS011;43562;43.064;0.160;2023-03-01T15:54:17;13.40;;;7.55;;
57720;SDS011;43562;43.064;0.160;2023-03-01T15:56:44;13.38;;;7.55;;
57720;SDS011;43562;43.064;0.160;2023-03-01T15:59:10;10.73;;;7.10;;
57720;SDS011;43562;43.064;0.160;2023-03-01T16:01:38;10.50;;;7.07;;
57720;SDS011;43562;43.064;0.160;2023-03-01T16:04:04;9.48;;;6.13;;
57720;SDS011;43562;43.064;0.160;2023-03-01T16:06:30;12.77;;;7.47;;
57720;SDS011;43562;43.064;0.160;2023-03-01T16:08:57;9.57;;;6.55;;
57720;SDS011;43562;43.064;0.160;2023-03-01T16:11:23;11.45;;;7.80;;
57720;SDS011;43562;43.064;0.160;2023-03-01T16:13:49;12.55;;;8.05;;
57720;SDS011;43562;43.064;0.160;2023-03-01T16:16:15;13.20;;;8.18;;
57720;SDS011;43562;43.064;0.160;2023-03-01T16:18:42;9.88;;;6.95;;
57720;SDS011;43562;43.064;0.160;2023-03-01T16:21:16;12.82;;;8.45;;
57720;SDS011;43562;43.064;0.160;2023-03-01T16:23:44;15.90;;;9.70;;
57720;SDS011;43562;43.064;0.160;2023-03-01T16:26:11;11.13;;;7.80;;
57720;SDS011;43562;43.064;0.160;2023-03-01T16:28:38;14.82;;;8.35;;
57720;SDS011;43562;43.064;0.160;2023-03-01T16:31:04;15.20;;;8.05;;
57720;SDS011;43562;43.064;0.160;2023-03-01T16:33:31;11.43;;;7.32;;
57720;SDS011;43562;43.064;0.160;2023-03-01T16:35:58;9.57;;;6.57;;
57720;SDS011;43562;43.064;0.160;2023-03-01T16:38:27;13.93;;;8.40;;
57720;SDS011;43562;43.064;0.160;2023-03-01T16:40:53;11.20;;;7.70;;
57720;SDS011;43562;43.064;0.160;2023-03-01T16:43:19;11.90;;;8.07;;
57720;SDS011;43562;43.064;0.160;2023-03-01T16:45:45;9.48;;;7.32;;
57720;SDS011;43562;43.064;0.160;2023-03-01T16:48:11;10.63;;;7.45;;
57720;SDS011;43562;43.064;0.160;2023-03-01T16:50:38;11.80;;;7.57;;
57720;SDS011;43562;43.064;0.160;2023-03-01T16:53:04;11.13;;;8.02;;
57720;SDS011;43562;43.064;0.160;2023-03-01T16:55:30;10.32;;;7.35;;
57720;SDS011;43562;43.064;0.160;2023-03-01T16:57:56;11.85;;;8.30;;
57720;SDS011;43562;43.064;0.160;2023-03-01T17:00:22;12.52;;;8.57;;
57720;SDS011;43562;43.064;0.160;2023-03-01T17:02:48;13.45;;;8.38;;